Time;durP1;ratioP1;P1;durP2;ratioP2;P2;SDS_P1;SDS_P2;PMS_P1;PMS_P2;Temp;Humidity;BMP_temperature;BMP_pressure;BME280_temperature;BME280_humidity;BME280_pressure;Samples;Min_cycle;Max_cycle;Signal;HPM_P1;HPM_P2
2022/10/10 00:02:20;;;;;;;11.32;5.70;;;7.80;99.90;;;;;;5106849;28;20047;-69
2022/10/10 00:04:46;;;;;;;36.00;15.50;;;7.70;99.90;;;;;;5108020;28;20055;-69
2022/10/10 00:07:11;;;;;;;26.10;15.68;;;7.70;99.90;;;;;;5105751;28;20043;-69
2022/10/10 00:09:37;;;;;;;19.30;14.85;;;7.70;99.90;;;;;;5098151;28;20047;-69
2022/10/10 00:12:02;;;;;;;21.88;16.10;;;7.70;99.90;;;;;;5104377;28;20048;-69
2022/10/10 00:14:28;;;;;;;30.48;15.90;;;7.60;99.90;;;;;;5107336;28;20051;-69
2022/10/10 00:16:54;;;;;;;23.05;16.00;;;7.60;99.90;;;;;;5088974;28;20039;-69
2022/10/10 00:19:19;;;;;;;10.30;5.78;;;7.60;99.90;;;;;;5100824;28;20067;-70
2022/10/10 00:21:45;;;;;;;10.75;6.07;;;7.60;99.90;;;;;;5104893;28;20044;-69
2022/10/10 00:24:11;;;;;;;21.75;15.82;;;7.50;99.90;;;;;;5104803;28;20047;-69
2022/10/10 00:26:36;;;;;;;24.88;16.88;;;7.50;99.90;;;;;;5106744;28;20039;-69
2022/10/10 00:29:02;;;;;;;22.95;16.05;;;7.40;99.90;;;;;;5106920;28;20079;-69
2022/10/10 00:31:27;;;;;;;26.17;15.48;;;7.40;99.90;;;;;;5105969;28;20055;-69
2022/10/10 00:33:53;;;;;;;17.15;7.18;;;7.40;99.90;;;;;;5101320;28;20077;-69
2022/10/10 00:36:20;;;;;;;26.02;14.45;;;7.40;99.90;;;;;;5104230;28;20202;-69
2022/10/10 00:38:46;;;;;;;20.67;14.27;;;7.40;99.90;;;;;;5102751;28;20051;-69
2022/10/10 00:41:12;;;;;;;12.73;5.95;;;7.40;99.90;;;;;;5107647;28;20088;-69
2022/10/10 00:43:38;;;;;;;12.95;7.07;;;7.40;99.90;;;;;;5107896;28;20447;-69
2022/10/10 00:46:04;;;;;;;10.43;5.63;;;7.40;99.90;;;;;;5104267;28;20092;-69
2022/10/10 00:48:39;;;;;;;23.83;15.02;;;7.30;99.90;;;;;;5090172;28;20046;-69
2022/10/10 00:51:15;;;;;;;15.65;5.50;;;7.30;99.90;;;;;;5101191;28;20047;-69
2022/10/10 00:53:45;;;;;;;27.85;17.00;;;7.30;99.90;;;;;;5086349;28;20401;-69
2022/10/10 00:56:13;;;;;;;16.48;14.23;;;7.30;99.90;;;;;;5098499;28;20067;-69
2022/10/10 00:58:41;;;;;;;12.60;8.43;;;7.30;99.90;;;;;;5105966;28;20046;-69
2022/10/10 01:01:08;;;;;;;11.32;6.97;;;7.30;99.90;;;;;;5107409;28;20044;-69
2022/10/10 01:03:34;;;;;;;15.90;6.50;;;7.20;99.90;;;;;;5107372;28;20108;-69
2022/10/10 01:05:59;;;;;;;4.97;4.22;;;7.20;99.90;;;;;;5101727;28;20052;-69
2022/10/10 01:08:26;;;;;;;25.90;17.27;;;7.10;99.90;;;;;;5097212;28;20052;-70
2022/10/10 01:11:12;;;;;;;23.83;16.27;;;7.10;99.90;;;;;;5106117;28;20056;-69
2022/10/10 01:13:53;;;;;;;26.98;16.83;;;7.10;99.90;;;;;;5082721;28;20052;-69
2022/10/10 01:16:28;;;;;;;28.10;16.63;;;7.10;99.90;;;;;;5101585;28;20051;-69
2022/10/10 01:19:23;;;;;;;39.60;17.75;;;7.10;99.90;;;;;;5100276;28;20044;-69
2022/10/10 01:22:25;;;;;;;21.70;16.33;;;7.00;99.90;;;;;;5102970;28;20048;-69
2022/10/10 01:24:59;;;;;;;24.58;17.10;;;7.00;99.90;;;;;;5091564;28;20059;-69
2022/10/10 01:27:34;;;;;;;7.63;6.03;;;7.00;99.90;;;;;;5090981;28;20063;-69
2022/10/10 01:30:02;;;;;;;24.40;16.55;;;6.90;99.90;;;;;;5109124;28;20127;-69
2022/10/10 01:32:49;;;;;;;18.65;8.77;;;7.00;99.90;;;;;;5111544;28;20059;-69
2022/10/10 01:35:38;;;;;;;21.65;16.90;;;7.00;99.90;;;;;;5110547;28;20070;-69
2022/10/10 01:38:09;;;;;;;9.57;5.80;;;6.90;99.90;;;;;;5107705;28;20046;-69
2022/10/10 01:40:46;;;;;;;24.02;15.07;;;6.90;99.90;;;;;;5090305;28;20067;-69
2022/10/10 01:43:12;;;;;;;13.52;5.88;;;6.90;99.90;;;;;;5108134;28;20515;-69
2022/10/10 01:45:46;;;;;;;30.20;16.75;;;6.90;99.90;;;;;;5111178;27;20047;-69
2022/10/10 01:48:12;;;;;;;27.58;16.67;;;6.90;99.90;;;;;;5092358;28;20198;-69
2022/10/10 01:51:26;;;;;;;20.10;15.35;;;6.90;99.90;;;;;;5089428;28;20411;-69
2022/10/10 01:54:12;;;;;;;22.95;14.93;;;6.90;99.90;;;;;;5099127;28;20044;-69
2022/10/10 01:56:53;;;;;;;9.23;6.13;;;6.90;99.90;;;;;;5107688;28;20051;-69
2022/10/10 01:59:50;;;;;;;19.25;14.77;;;6.80;99.90;;;;;;5110353;28;20497;-69
2022/10/10 02:02:55;;;;;;;13.25;5.63;;;6.80;99.90;;;;;;5106412;28;20048;-69
2022/10/10 02:05:52;;;;;;;27.67;14.95;;;6.70;99.90;;;;;;5082697;28;20044;-69
2022/10/10 02:08:31;;;;;;;21.40;14.25;;;6.60;99.90;;;;;;5102485;28;20127;-69
2022/10/10 02:11:05;;;;;;;13.18;7.10;;;6.60;99.90;;;;;;5103705;28;20075;-69
2022/10/10 02:13:43;;;;;;;21.13;15.63;;;6.60;99.90;;;;;;5102075;28;20051;-69
2022/10/10 02:16:23;;;;;;;26.42;15.55;;;6.50;99.90;;;;;;5109232;28;20051;-69
2022/10/10 02:18:50;;;;;;;10.40;5.53;;;6.50;99.90;;;;;;5104679;28;20082;-69
2022/10/10 02:21:17;;;;;;;9.07;5.90;;;6.50;99.90;;;;;;5105372;28;20408;-69
2022/10/10 02:23:47;;;;;;;7.28;5.53;;;6.40;99.90;;;;;;5102349;28;20764;-69
2022/10/10 02:26:16;;;;;;;14.88;4.65;;;6.40;99.90;;;;;;5096159;28;20044;-69
2022/10/10 02:28:51;;;;;;;26.60;8.13;;;6.30;99.90;;;;;;5110695;28;20083;-69
2022/10/10 02:31:30;;;;;;;9.50;5.53;;;6.30;99.90;;;;;;5108965;28;20073;-69
2022/10/10 02:34:05;;;;;;;12.65;6.25;;;6.30;99.90;;;;;;5109425;28;20564;-69
2022/10/10 02:36:31;;;;;;;7.10;4.47;;;6.20;99.90;;;;;;5109755;28;20097;-69
2022/10/10 02:38:58;;;;;;;8.77;5.03;;;6.20;99.90;;;;;;5090744;28;20100;-69
2022/10/10 02:41:26;;;;;;;19.25;14.57;;;6.30;99.90;;;;;;5101303;28;20052;-69
2022/10/10 02:43:52;;;;;;;12.13;5.65;;;6.20;99.90;;;;;;5088136;28;20036;-68
2022/10/10 02:46:21;;;;;;;9.50;5.10;;;6.20;99.90;;;;;;5107344;28;20039;-69
2022/10/10 02:48:47;;;;;;;9.38;4.88;;;6.20;99.90;;;;;;5104065;28;20036;-68
2022/10/10 02:51:15;;;;;;;27.35;15.57;;;6.10;99.90;;;;;;5091543;28;20055;-68
2022/10/10 02:53:40;;;;;;;21.75;14.60;;;6.20;99.90;;;;;;5104512;28;20051;-68
2022/10/10 02:56:06;;;;;;;14.05;6.35;;;6.20;99.90;;;;;;5100214;28;20054;-68
2022/10/10 02:58:32;;;;;;;9.27;5.32;;;6.20;99.90;;;;;;5109070;28;20120;-68
2022/10/10 03:00:57;;;;;;;8.75;5.13;;;6.10;99.90;;;;;;5105720;28;20066;-68
2022/10/10 03:03:24;;;;;;;26.15;15.80;;;6.10;99.90;;;;;;5103584;28;20052;-67
2022/10/10 03:05:50;;;;;;;14.45;7.22;;;6.10;99.90;;;;;;5102802;28;20047;-68
2022/10/10 03:08:16;;;;;;;13.45;5.10;;;6.10;99.90;;;;;;5106457;28;20412;-68
2022/10/10 03:10:52;;;;;;;13.13;6.80;;;6.00;99.90;;;;;;5094206;28;20043;-67
2022/10/10 03:13:17;;;;;;;20.63;15.82;;;6.00;99.90;;;;;;5103631;28;20054;-67
2022/10/10 03:15:43;;;;;;;24.50;17.10;;;5.90;99.90;;;;;;5107331;28;20035;-67
2022/10/10 03:18:08;;;;;;;23.48;17.42;;;5.90;99.90;;;;;;5107380;28;20070;-67
2022/10/10 03:20:34;;;;;;;11.05;5.40;;;5.90;99.90;;;;;;5107363;28;20147;-67
2022/10/10 03:23:00;;;;;;;12.65;4.68;;;5.80;99.90;;;;;;5101056;28;20039;-67
2022/10/10 03:25:25;;;;;;;19.52;14.88;;;5.80;99.90;;;;;;5098574;28;20524;-67
2022/10/10 03:27:51;;;;;;;15.82;6.55;;;5.80;99.90;;;;;;5093909;28;20568;-67
2022/10/10 03:30:16;;;;;;;27.02;17.83;;;5.80;99.90;;;;;;5102154;28;20126;-67
2022/10/10 03:32:42;;;;;;;13.70;7.47;;;5.80;99.90;;;;;;5108736;28;20039;-67
2022/10/10 03:35:08;;;;;;;25.05;16.33;;;5.80;99.90;;;;;;5101517;28;20461;-67
2022/10/10 03:37:34;;;;;;;9.75;6.25;;;5.70;99.90;;;;;;5105911;28;20059;-67
2022/10/10 03:40:00;;;;;;;28.23;16.13;;;5.70;99.90;;;;;;5105454;28;20035;-67
2022/10/10 03:42:25;;;;;;;21.70;16.90;;;5.70;99.90;;;;;;5113258;27;20081;-67
2022/10/10 03:44:52;;;;;;;20.40;15.48;;;5.70;99.90;;;;;;5104895;28;20155;-67
2022/10/10 03:47:18;;;;;;;9.75;4.95;;;5.80;99.90;;;;;;5106813;28;20048;-67
2022/10/10 03:49:43;;;;;;;23.85;16.70;;;5.70;99.90;;;;;;5087838;28;20040;-67
2022/10/10 03:52:09;;;;;;;9.82;5.28;;;5.70;99.90;;;;;;5096375;28;20039;-67
2022/10/10 03:54:34;;;;;;;27.90;7.93;;;5.70;99.90;;;;;;5106464;28;20872;-67
2022/10/10 03:57:00;;;;;;;23.90;16.15;;;5.70;99.90;;;;;;5107606;28;20051;-67
2022/10/10 03:59:26;;;;;;;22.38;16.58;;;5.60;99.90;;;;;;5107847;28;20374;-67
2022/10/10 04:01:51;;;;;;;11.90;6.00;;;5.70;99.90;;;;;;5108778;28;20043;-67
2022/10/10 04:04:17;;;;;;;9.95;4.65;;;5.60;99.90;;;;;;5104835;28;20043;-67
2022/10/10 04:06:42;;;;;;;22.27;16.45;;;5.60;99.90;;;;;;5104078;28;20048;-67
2022/10/10 04:09:08;;;;;;;16.10;6.22;;;5.60;99.90;;;;;;5102219;28;20512;-67
2022/10/10 04:11:35;;;;;;;18.63;15.73;;;5.60;99.90;;;;;;5108457;28;20127;-68
2022/10/10 04:14:01;;;;;;;12.30;6.47;;;5.60;99.90;;;;;;5104111;28;20043;-68
2022/10/10 04:16:27;;;;;;;24.08;16.10;;;5.60;99.90;;;;;;5102132;28;20059;-67
2022/10/10 04:18:52;;;;;;;16.70;5.63;;;5.60;99.90;;;;;;5105199;28;20517;-67
2022/10/10 04:21:18;;;;;;;11.27;5.95;;;5.50;99.90;;;;;;5103033;28;20055;-67
2022/10/10 04:23:44;;;;;;;17.23;6.88;;;5.50;99.90;;;;;;5097139;28;20087;-68
2022/10/10 04:26:09;;;;;;;10.02;5.13;;;5.50;99.90;;;;;;5108156;28;20047;-68
2022/10/10 04:28:35;;;;;;;26.50;17.88;;;5.40;99.90;;;;;;5101472;28;20082;-68
2022/10/10 04:31:01;;;;;;;9.93;5.68;;;5.40;99.90;;;;;;5088204;28;20447;-68
2022/10/10 04:33:26;;;;;;;11.45;6.72;;;5.40;99.90;;;;;;5087240;28;20064;-67
2022/10/10 04:35:52;;;;;;;20.35;7.03;;;5.40;99.90;;;;;;5103706;28;20043;-68
2022/10/10 04:38:20;;;;;;;22.77;16.45;;;5.30;99.90;;;;;;5100719;28;20100;-68
2022/10/10 04:40:48;;;;;;;28.70;18.10;;;5.40;99.90;;;;;;5095532;28;20058;-67
2022/10/10 04:43:14;;;;;;;11.45;7.70;;;5.40;99.90;;;;;;5104917;28;20051;-68
2022/10/10 04:45:40;;;;;;;12.25;5.53;;;5.40;99.90;;;;;;5096106;28;20074;-68
2022/10/10 04:48:06;;;;;;;11.02;5.53;;;5.30;99.90;;;;;;5097926;28;20063;-67
2022/10/10 04:50:32;;;;;;;8.27;4.70;;;5.30;99.90;;;;;;5106829;28;20109;-68
2022/10/10 04:52:57;;;;;;;18.02;6.28;;;5.30;99.90;;;;;;5104782;28;20132;-68
2022/10/10 04:55:23;;;;;;;27.65;17.83;;;5.30;99.90;;;;;;5101322;28;20469;-68
2022/10/10 04:57:49;;;;;;;16.50;8.95;;;5.30;99.90;;;;;;5071423;28;20735;-67
2022/10/10 05:00:14;;;;;;;21.50;6.28;;;5.30;99.90;;;;;;5092262;28;20067;-67
2022/10/10 05:02:40;;;;;;;7.55;5.32;;;5.20;99.90;;;;;;5111722;28;20122;-67
2022/10/10 05:05:06;;;;;;;32.25;19.48;;;5.20;99.90;;;;;;5101941;28;20040;-68
2022/10/10 05:07:32;;;;;;;10.93;6.07;;;5.20;99.90;;;;;;5098246;28;20069;-67
2022/10/10 05:09:58;;;;;;;13.88;6.97;;;5.20;99.90;;;;;;5105371;28;20165;-67
2022/10/10 05:12:24;;;;;;;11.98;5.43;;;5.20;99.90;;;;;;5111439;28;20036;-67
2022/10/10 05:14:49;;;;;;;35.53;20.20;;;5.20;99.90;;;;;;5110897;28;20701;-67
2022/10/10 05:17:15;;;;;;;16.27;8.27;;;5.20;99.90;;;;;;5096045;28;20048;-68
2022/10/10 05:19:41;;;;;;;17.15;7.20;;;5.10;99.90;;;;;;5102977;28;20052;-67
2022/10/10 05:22:07;;;;;;;28.25;19.55;;;5.10;99.90;;;;;;5089048;28;20051;-68
2022/10/10 05:24:33;;;;;;;13.27;8.02;;;5.10;99.90;;;;;;5093229;28;20043;-67
2022/10/10 05:26:59;;;;;;;15.82;6.72;;;5.10;99.90;;;;;;5091222;28;20051;-67
2022/10/10 05:29:24;;;;;;;25.27;17.65;;;5.00;99.90;;;;;;5096239;28;20052;-67
2022/10/10 05:31:50;;;;;;;20.35;7.45;;;5.10;99.90;;;;;;5104912;28;20500;-68
2022/10/10 05:34:16;;;;;;;27.88;18.33;;;5.00;99.90;;;;;;5109371;28;20123;-67
2022/10/10 05:36:42;;;;;;;23.40;7.72;;;5.40;99.90;;;;;;5104199;28;20066;-68
2022/10/10 05:39:07;;;;;;;23.30;18.23;;;5.10;99.90;;;;;;5094085;28;20044;-67
2022/10/10 05:41:34;;;;;;;23.38;7.40;;;5.10;99.90;;;;;;5106562;28;20046;-68
2022/10/10 05:44:00;;;;;;;24.50;17.85;;;5.00;99.90;;;;;;5109390;28;20044;-68
2022/10/10 05:46:26;;;;;;;13.85;6.88;;;5.00;99.90;;;;;;5109360;28;20397;-67
2022/10/10 05:48:52;;;;;;;13.45;6.28;;;5.00;99.90;;;;;;5104652;28;20059;-68
2022/10/10 05:51:18;;;;;;;14.95;7.95;;;5.00;99.90;;;;;;5099865;28;20040;-68
2022/10/10 05:53:44;;;;;;;28.13;18.70;;;4.90;99.90;;;;;;5099592;28;20454;-67
2022/10/10 05:56:10;;;;;;;16.90;8.18;;;4.90;99.90;;;;;;5089564;28;20044;-67
2022/10/10 05:58:37;;;;;;;11.75;6.75;;;4.90;99.90;;;;;;5107421;28;20177;-68
2022/10/10 06:01:04;;;;;;;33.97;23.92;;;4.90;99.90;;;;;;5099926;28;20051;-67
2022/10/10 06:03:30;;;;;;;20.45;10.48;;;4.90;99.90;;;;;;5110594;28;20078;-67
2022/10/10 06:05:56;;;;;;;20.95;8.68;;;4.90;99.90;;;;;;5108855;28;20059;-67
2022/10/10 06:08:24;;;;;;;34.38;24.63;;;4.90;99.90;;;;;;5103067;28;20058;-67
2022/10/10 06:10:50;;;;;;;17.33;8.90;;;5.00;99.90;;;;;;5093607;28;20083;-67
2022/10/10 06:13:17;;;;;;;10.63;7.68;;;5.00;99.90;;;;;;5103323;27;20140;-67
2022/10/10 06:15:43;;;;;;;27.95;21.60;;;5.00;99.90;;;;;;5104636;28;20411;-67
2022/10/10 06:18:10;;;;;;;8.20;5.78;;;5.10;99.90;;;;;;5109384;28;20040;-67
2022/10/10 06:20:37;;;;;;;17.33;6.45;;;5.10;99.90;;;;;;5109593;28;20056;-68
2022/10/10 06:23:04;;;;;;;26.85;18.38;;;5.20;99.90;;;;;;5108457;28;20108;-67
2022/10/10 06:25:31;;;;;;;17.83;8.50;;;5.90;99.90;;;;;;5100941;27;20574;-68
2022/10/10 06:27:57;;;;;;;32.03;20.50;;;5.60;99.90;;;;;;5101511;28;20051;-68
2022/10/10 06:30:23;;;;;;;27.75;19.38;;;5.40;99.90;;;;;;5095479;28;20903;-67
2022/10/10 06:32:48;;;;;;;13.90;6.95;;;5.50;99.90;;;;;;5094844;28;20032;-68
2022/10/10 06:35:14;;;;;;;29.33;19.45;;;5.60;99.90;;;;;;5103197;28;20548;-67
2022/10/10 06:37:40;;;;;;;14.25;8.18;;;5.70;99.90;;;;;;5105164;28;20464;-68
2022/10/10 06:40:06;;;;;;;37.22;19.38;;;5.90;99.90;;;;;;5109139;28;20036;-67
2022/10/10 06:42:32;;;;;;;13.93;6.55;;;6.00;99.90;;;;;;5101698;28;20082;-68
2022/10/10 06:44:58;;;;;;;37.67;21.75;;;6.20;99.90;;;;;;5108073;28;20079;-68
2022/10/10 06:47:24;;;;;;;44.35;19.27;;;6.30;99.90;;;;;;5105205;28;20078;-68
2022/10/10 06:49:49;;;;;;;17.65;8.68;;;6.60;99.90;;;;;;5089495;28;20044;-68
2022/10/10 06:52:15;;;;;;;27.90;20.30;;;6.60;99.90;;;;;;5093098;28;20040;-69
2022/10/10 06:54:41;;;;;;;32.78;19.88;;;6.70;99.90;;;;;;5094140;28;20032;-68
2022/10/10 06:57:07;;;;;;;16.77;7.57;;;6.80;99.90;;;;;;5091119;28;20485;-69
2022/10/10 06:59:33;;;;;;;33.20;21.10;;;7.00;99.90;;;;;;5098634;28;20036;-68
2022/10/10 07:01:59;;;;;;;38.80;19.75;;;7.10;99.90;;;;;;5090360;28;20043;-68
2022/10/10 07:04:25;;;;;;;17.33;8.75;;;7.20;99.90;;;;;;5091515;28;20054;-68
2022/10/10 07:06:50;;;;;;;48.40;22.35;;;7.30;99.90;;;;;;5104997;28;20420;-68
2022/10/10 07:09:18;;;;;;;32.53;20.85;;;7.40;99.90;;;;;;5108354;28;20130;-69
2022/10/10 07:11:44;;;;;;;14.50;6.82;;;7.50;99.90;;;;;;5106724;28;20078;-69
2022/10/10 07:14:12;;;;;;;9.38;7.32;;;7.60;99.90;;;;;;5108921;28;20591;-68
2022/10/10 07:16:39;;;;;;;46.97;22.58;;;7.70;99.90;;;;;;5094542;28;20085;-69
2022/10/10 07:19:04;;;;;;;32.50;19.08;;;7.80;99.90;;;;;;5097249;28;20390;-69
2022/10/10 07:21:31;;;;;;;35.80;20.38;;;7.90;99.90;;;;;;5097016;28;20050;-68
2022/10/10 07:23:57;;;;;;;31.80;20.23;;;8.10;99.90;;;;;;5091171;27;20046;-67
2022/10/10 07:26:26;;;;;;;16.40;7.38;;;8.10;99.90;;;;;;5091190;28;20043;-68
2022/10/10 07:28:52;;;;;;;31.85;19.65;;;8.20;99.90;;;;;;5095471;28;20420;-68
2022/10/10 07:31:18;;;;;;;34.58;20.63;;;8.30;99.90;;;;;;5102366;28;20047;-69
2022/10/10 07:33:46;;;;;;;15.98;7.00;;;8.40;99.90;;;;;;5102468;28;20046;-68
2022/10/10 07:36:13;;;;;;;43.13;20.23;;;8.50;99.90;;;;;;5099710;28;20047;-68
2022/10/10 07:38:40;;;;;;;28.85;19.88;;;8.60;99.90;;;;;;5107100;28;20152;-68
2022/10/10 07:41:12;;;;;;;36.50;20.92;;;8.60;99.90;;;;;;5101163;28;20028;-68
2022/10/10 07:43:37;;;;;;;31.88;20.20;;;8.70;99.90;;;;;;5107808;28;20044;-68
2022/10/10 07:46:04;;;;;;;31.65;20.42;;;8.80;99.90;;;;;;5104150;28;20114;-68
2022/10/10 07:48:30;;;;;;;18.88;9.35;;;8.90;99.90;;;;;;5090951;28;20516;-68
2022/10/10 07:50:57;;;;;;;27.08;8.38;;;8.90;99.90;;;;;;5101451;28;20092;-68
2022/10/10 07:53:23;;;;;;;31.40;19.17;;;9.00;99.90;;;;;;5102994;28;20043;-67
2022/10/10 07:55:49;;;;;;;41.83;20.95;;;9.00;99.90;;;;;;5088963;28;20047;-68
2022/10/10 07:58:15;;;;;;;14.25;7.57;;;9.10;99.90;;;;;;5091709;28;20047;-68
2022/10/10 08:00:41;;;;;;;97.93;27.75;;;9.10;99.90;;;;;;5098938;28;20125;-68
2022/10/10 08:03:10;;;;;;;106.50;28.50;;;9.10;99.90;;;;;;5108408;28;20115;-68
2022/10/10 08:05:41;;;;;;;43.53;21.15;;;9.20;99.90;;;;;;5108409;28;20404;-68
2022/10/10 08:08:08;;;;;;;33.10;21.00;;;9.20;99.90;;;;;;5107594;28;20189;-68
2022/10/10 08:10:34;;;;;;;35.33;19.73;;;9.30;99.90;;;;;;5097875;28;20109;-68
2022/10/10 08:13:00;;;;;;;57.85;24.75;;;9.30;99.90;;;;;;5103631;28;20493;-70
2022/10/10 08:15:26;;;;;;;22.05;8.43;;;9.40;99.90;;;;;;5092516;28;20089;-70
2022/10/10 08:17:51;;;;;;;28.73;20.23;;;9.50;99.90;;;;;;5090272;28;20040;-71
2022/10/10 08:20:17;;;;;;;15.40;8.27;;;9.60;99.90;;;;;;5087654;28;20466;-71
2022/10/10 08:22:43;;;;;;;30.52;19.92;;;9.70;99.90;;;;;;5090127;28;20052;-71
2022/10/10 08:25:08;;;;;;;40.83;20.90;;;9.70;99.90;;;;;;5072037;28;20055;-70
2022/10/10 08:27:34;;;;;;;44.20;21.38;;;9.90;99.90;;;;;;5091630;28;20055;-70
2022/10/10 08:30:00;;;;;;;38.35;21.58;;;9.90;99.90;;;;;;5098523;28;20046;-70
2022/10/10 08:32:25;;;;;;;32.28;18.48;;;10.00;99.90;;;;;;5096832;28;20377;-70
2022/10/10 08:34:51;;;;;;;11.57;6.90;;;10.10;99.90;;;;;;5107006;28;20044;-70
2022/10/10 08:37:16;;;;;;;20.80;8.60;;;10.10;99.90;;;;;;5107613;28;20044;-70
2022/10/10 08:39:42;;;;;;;31.10;19.88;;;10.10;99.90;;;;;;5093832;28;20128;-70
2022/10/10 08:42:24;;;;;;;46.90;21.75;;;10.20;99.90;;;;;;5086462;28;20052;-70
2022/10/10 08:44:54;;;;;;;37.85;21.58;;;10.30;99.90;;;;;;5097304;28;20048;-70
2022/10/10 08:47:37;;;;;;;34.03;21.17;;;10.40;99.90;;;;;;5104199;28;20130;-70
2022/10/10 08:50:29;;;;;;;62.22;22.85;;;10.60;99.90;;;;;;5084768;28;20722;-70
2022/10/10 08:53:21;;;;;;;37.15;22.08;;;10.60;99.90;;;;;;5089260;28;20420;-70
2022/10/10 08:55:47;;;;;;;53.17;20.92;;;10.60;99.90;;;;;;5107539;28;20107;-70
2022/10/10 08:58:36;;;;;;;20.90;10.00;;;10.60;99.90;;;;;;5107677;28;20054;-70
2022/10/10 09:01:27;;;;;;;32.65;20.02;;;10.70;99.90;;;;;;5092162;28;20040;-70
2022/10/10 09:03:55;;;;;;;34.63;20.60;;;10.80;99.90;;;;;;5103884;28;20399;-70
2022/10/10 09:06:47;;;;;;;36.22;26.45;;;10.90;99.90;;;;;;5105090;28;20090;-68
2022/10/10 09:09:24;;;;;;;31.40;21.40;;;10.90;99.90;;;;;;5101317;28;20116;-68
2022/10/10 09:12:11;;;;;;;40.42;21.17;;;10.90;99.90;;;;;;5088101;28;20056;-68
2022/10/10 09:14:46;;;;;;;31.02;22.25;;;11.00;99.90;;;;;;5094563;28;20228;-68
2022/10/10 09:17:22;;;;;;;32.00;20.60;;;11.10;99.90;;;;;;5097085;28;20039;-68
2022/10/10 09:20:10;;;;;;;31.10;21.00;;;11.20;99.90;;;;;;5099730;28;20052;-68
2022/10/10 09:22:50;;;;;;;35.03;21.73;;;11.40;99.90;;;;;;5107791;28;20393;-68
2022/10/10 09:25:26;;;;;;;34.63;20.33;;;11.60;99.90;;;;;;5087536;28;20078;-68
2022/10/10 09:28:07;;;;;;;32.75;19.38;;;11.80;99.90;;;;;;5101730;28;20092;-68
2022/10/10 09:30:39;;;;;;;32.55;20.60;;;12.00;99.90;;;;;;5107303;28;20046;-69
2022/10/10 09:33:29;;;;;;;34.38;20.55;;;12.20;99.90;;;;;;5102480;28;20048;-68
2022/10/10 09:35:59;;;;;;;33.30;19.85;;;12.50;99.90;;;;;;5103888;28;20047;-68
2022/10/10 09:38:34;;;;;;;39.00;20.88;;;12.70;99.90;;;;;;5106076;28;20670;-69
2022/10/10 09:41:18;;;;;;;32.05;19.20;;;13.00;99.90;;;;;;5105041;28;20122;-68
2022/10/10 09:43:43;;;;;;;40.05;21.27;;;13.20;99.90;;;;;;5105893;28;20047;-69
2022/10/10 09:46:09;;;;;;;40.28;21.42;;;13.40;99.90;;;;;;5103487;28;20052;-68
2022/10/10 09:48:40;;;;;;;31.77;21.00;;;13.60;99.90;;;;;;5092111;28;20623;-68
2022/10/10 09:51:12;;;;;;;27.05;18.60;;;13.80;99.90;;;;;;5108569;28;20062;-69
2022/10/10 09:53:37;;;;;;;32.05;20.73;;;13.80;99.90;;;;;;5110828;28;20074;-69
2022/10/10 09:56:05;;;;;;;31.85;19.67;;;13.90;99.90;;;;;;5103984;28;20449;-69
2022/10/10 09:58:41;;;;;;;31.05;19.00;;;14.00;99.90;;;;;;5110395;28;20043;-70
2022/10/10 10:01:16;;;;;;;42.35;20.95;;;14.30;99.90;;;;;;5110844;28;20035;-69
2022/10/10 10:03:43;;;;;;;28.17;20.50;;;14.30;99.90;;;;;;5110141;28;20126;-70
2022/10/10 10:06:19;;;;;;;34.92;20.95;;;14.50;99.90;;;;;;5109335;28;20045;-70
2022/10/10 10:08:44;;;;;;;34.22;18.85;;;14.70;99.90;;;;;;5108969;28;20047;-69
2022/10/10 10:11:28;;;;;;;23.40;17.17;;;14.80;99.90;;;;;;5110631;28;20531;-70
2022/10/10 10:13:55;;;;;;;28.73;18.38;;;15.00;99.90;;;;;;5110115;28;20126;-70
2022/10/10 10:16:30;;;;;;;29.90;18.75;;;15.10;99.90;;;;;;5110630;28;20105;-70
2022/10/10 10:18:55;;;;;;;30.00;18.75;;;15.10;99.90;;;;;;5106127;28;20055;-70
2022/10/10 10:21:23;;;;;;;40.22;19.10;;;15.10;99.90;;;;;;5110223;28;20047;-70
2022/10/10 10:24:00;;;;;;;30.45;18.55;;;15.20;99.90;;;;;;5107520;28;20436;-70
2022/10/10 10:26:42;;;;;;;28.27;18.70;;;15.10;99.90;;;;;;5102352;28;20488;-71
2022/10/10 10:29:26;;;;;;;30.17;19.25;;;15.30;99.90;;;;;;5109946;28;20051;-70
2022/10/10 10:32:29;;;;;;;29.38;18.65;;;15.10;99.90;;;;;;5109582;28;20787;-71
2022/10/10 10:35:32;;;;;;;29.38;18.48;;;15.30;99.90;;;;;;5092826;28;20496;-71
2022/10/10 10:38:29;;;;;;;26.77;19.02;;;15.40;99.90;;;;;;5107097;28;20060;-71
2022/10/10 10:41:18;;;;;;;32.90;19.33;;;15.60;99.90;;;;;;5095301;28;20032;-72
2022/10/10 10:43:46;;;;;;;44.65;21.55;;;15.70;99.90;;;;;;5101004;28;20036;-71
2022/10/10 10:46:35;;;;;;;36.67;19.23;;;15.70;99.90;;;;;;5096946;28;20122;-71
2022/10/10 10:49:07;;;;;;;27.13;16.70;;;15.70;99.90;;;;;;5096452;28;20678;-72
2022/10/10 10:52:08;;;;;;;22.45;17.58;;;15.80;99.90;;;;;;5102376;28;20040;-71
2022/10/10 10:54:56;;;;;;;25.73;19.30;;;16.00;99.90;;;;;;5093642;28;20051;-71
2022/10/10 10:57:39;;;;;;;32.10;17.88;;;16.00;99.90;;;;;;5108503;28;20054;-71
2022/10/10 11:00:08;;;;;;;39.20;19.80;;;16.00;99.90;;;;;;5109540;28;20409;-71
2022/10/10 11:02:56;;;;;;;24.85;18.13;;;16.10;99.90;;;;;;5102415;28;20047;-71
2022/10/10 11:06:02;;;;;;;27.15;17.45;;;16.20;99.90;;;;;;5100777;28;20099;-71
2022/10/10 11:08:46;;;;;;;26.58;18.25;;;16.30;99.90;;;;;;5079702;28;20174;-71
2022/10/10 11:11:36;;;;;;;30.98;18.50;;;16.30;99.90;;;;;;5106287;28;20038;-71
2022/10/10 11:14:35;;;;;;;34.92;17.58;;;16.30;99.90;;;;;;5100357;28;20044;-71
2022/10/10 11:17:18;;;;;;;30.70;19.50;;;16.30;99.90;;;;;;5098852;28;20040;-71
2022/10/10 11:20:02;;;;;;;29.20;17.80;;;16.20;99.90;;;;;;5108740;28;20048;-71
2022/10/10 11:22:53;;;;;;;28.38;16.52;;;16.10;99.90;;;;;;5100661;28;20084;-71
2022/10/10 11:25:29;;;;;;;27.20;17.95;;;16.10;99.90;;;;;;5099509;28;20173;-71
2022/10/10 11:28:00;;;;;;;24.58;17.90;;;16.10;99.90;;;;;;5092774;28;20052;-71
2022/10/10 11:30:32;;;;;;;44.35;23.08;;;16.10;99.90;;;;;;5100773;28;20512;-71
2022/10/10 11:33:19;;;;;;;40.17;21.30;;;16.20;99.90;;;;;;5089247;28;20044;-71
2022/10/10 11:36:11;;;;;;;29.40;20.73;;;16.00;99.90;;;;;;5109091;28;20058;-71
2022/10/10 11:38:39;;;;;;;25.15;17.58;;;16.00;99.90;;;;;;5105047;28;20091;-71
2022/10/10 11:41:32;;;;;;;29.20;18.38;;;16.00;99.90;;;;;;5100426;28;20112;-71
2022/10/10 11:44:20;;;;;;;28.88;16.80;;;16.00;99.90;;;;;;5091054;28;20133;-71
2022/10/10 11:47:13;;;;;;;33.65;17.98;;;15.90;99.90;;;;;;5099910;28;20055;-71
2022/10/10 11:49:59;;;;;;;32.08;17.90;;;15.80;99.90;;;;;;5090028;28;20397;-71
2022/10/10 11:53:04;;;;;;;39.05;17.52;;;15.70;99.90;;;;;;5105631;28;21267;-71
2022/10/10 11:55:51;;;;;;;32.83;17.80;;;15.70;99.90;;;;;;5099622;28;20385;-70
2022/10/10 11:58:32;;;;;;;20.98;15.52;;;15.80;99.90;;;;;;5102795;28;20050;-73
2022/10/10 12:01:20;;;;;;;35.53;17.33;;;15.80;99.90;;;;;;5095090;28;20054;-70
2022/10/10 12:03:46;;;;;;;28.42;18.50;;;15.70;99.90;;;;;;5105179;28;20043;-70
2022/10/10 12:06:43;;;;;;;24.27;16.77;;;15.80;99.90;;;;;;5103251;28;20066;-70
2022/10/10 12:09:30;;;;;;;26.47;15.93;;;15.70;99.90;;;;;;5088189;28;20051;-70
2022/10/10 12:12:10;;;;;;;27.45;17.98;;;15.60;99.90;;;;;;5089102;28;20446;-70
2022/10/10 12:14:39;;;;;;;29.13;16.52;;;15.60;99.90;;;;;;5095387;28;20079;-70
2022/10/10 12:17:31;;;;;;;30.83;16.40;;;15.60;99.90;;;;;;5098962;27;20053;-71
2022/10/10 12:20:30;;;;;;;22.60;16.45;;;15.50;99.90;;;;;;5098881;28;20062;-71
2022/10/10 12:23:20;;;;;;;31.90;15.48;;;15.40;99.90;;;;;;5098462;28;20047;-71
2022/10/10 12:25:46;;;;;;;25.98;17.60;;;15.50;99.90;;;;;;5093282;28;20086;-70
2022/10/10 12:28:12;;;;;;;35.85;18.73;;;15.40;99.90;;;;;;5098563;28;20048;-70
2022/10/10 12:31:03;;;;;;;36.63;17.85;;;15.40;99.90;;;;;;5097997;28;20044;-71
2022/10/10 12:33:32;;;;;;;33.33;16.40;;;15.40;99.90;;;;;;5106450;28;20079;-71
2022/10/10 12:36:24;;;;;;;24.50;14.45;;;15.30;99.90;;;;;;5104119;28;20082;-71
2022/10/10 12:39:09;;;;;;;26.95;18.08;;;15.30;99.90;;;;;;5087264;28;20044;-71
2022/10/10 12:41:41;;;;;;;23.83;17.15;;;15.30;99.90;;;;;;5094017;28;20056;-71
2022/10/10 12:44:40;;;;;;;30.02;17.95;;;15.30;99.90;;;;;;5094665;28;20051;-71
2022/10/10 12:47:15;;;;;;;29.55;18.15;;;15.30;99.90;;;;;;5099935;28;20054;-71
2022/10/10 12:50:05;;;;;;;28.20;17.05;;;15.40;99.90;;;;;;5107533;28;20055;-71
2022/10/10 12:52:34;;;;;;;29.65;18.75;;;15.30;99.90;;;;;;5095166;28;20086;-70
2022/10/10 12:55:06;;;;;;;24.02;18.08;;;15.20;99.90;;;;;;5103840;28;20412;-70
2022/10/10 12:57:40;;;;;;;30.23;17.85;;;15.20;99.90;;;;;;5103307;28;20070;-71
2022/10/10 13:00:15;;;;;;;30.33;20.23;;;15.30;99.90;;;;;;5106478;28;20047;-70
2022/10/10 13:03:02;;;;;;;31.92;19.45;;;15.10;99.90;;;;;;5105120;28;20040;-70
2022/10/10 13:05:33;;;;;;;30.85;20.27;;;15.10;99.90;;;;;;5101247;28;20096;-70